Time;durP1;ratioP1;P1;durP2;ratioP2;P2;SDS_P1;SDS_P2;PMS_P1;PMS_P2;Temp;Humidity;BMP_temperature;BMP_pressure;BME280_temperature;BME280_humidity;BME280_pressure;Samples;Min_cycle;Max_cycle;Signal;HPM_P1;HPM_P2
2023/12/19 00:02:08;;;;;;;7.57;5.00;;;;;;;;;;5071818;28;20094;-27
2023/12/19 00:04:36;;;;;;;6.38;4.75;;;20.00;61.90;;;;;;5072108;28;20048;-25
2023/12/19 00:07:04;;;;;;;6.15;4.65;;;20.40;69.70;;;;;;5051349;28;20099;-24
2023/12/19 00:09:31;;;;;;;6.07;4.63;;;19.80;69.30;;;;;;5051820;28;20057;-25
2023/12/19 00:11:58;;;;;;;6.68;4.93;;;;;;;;;;5051628;28;20049;-26
2023/12/19 00:14:25;;;;;;;5.57;4.60;;;18.70;68.50;;;;;;5051994;28;20056;-25
2023/12/19 00:16:52;;;;;;;5.45;4.38;;;;;;;;;;5051252;28;20455;-25
2023/12/19 00:19:19;;;;;;;5.55;4.60;;;19.50;68.90;;;;;;5060076;28;20045;-27
2023/12/19 00:21:46;;;;;;;6.13;4.60;;;;;;;;;;5051783;28;20047;-26
2023/12/19 00:24:15;;;;;;;5.68;4.43;;;19.10;69.30;;;;;;5051463;28;20052;-28
2023/12/19 00:26:41;;;;;;;5.28;4.32;;;19.60;69.20;;;;;;5051288;28;20044;-27
2023/12/19 00:29:09;;;;;;;6.07;4.40;;;;;;;;;;5056260;28;20211;-26
2023/12/19 00:31:35;;;;;;;5.30;4.32;;;18.70;68.70;;;;;;5071857;28;20044;-25
2023/12/19 00:34:02;;;;;;;5.20;4.22;;;19.40;56.60;;;;;;5064460;28;20179;-25
2023/12/19 00:36:28;;;;;;;5.70;4.45;;;19.50;66.40;;;;;;5056212;28;20053;-25
2023/12/19 00:38:55;;;;;;;6.03;4.53;;;;;;;;;;5071378;28;20060;-25
2023/12/19 00:41:23;;;;;;;5.47;3.92;;;19.20;69.20;;;;;;5071014;28;20106;-25
2023/12/19 00:43:50;;;;;;;4.68;4.10;;;19.80;69.90;;;;;;5071579;28;20087;-25
2023/12/19 00:46:17;;;;;;;4.55;3.60;;;19.40;53.70;;;;;;5071366;28;20049;-27
2023/12/19 00:48:44;;;;;;;5.50;4.20;;;19.90;69.90;;;;;;5070545;28;20093;-29
2023/12/19 00:51:11;;;;;;;5.60;4.55;;;19.20;69.70;;;;;;5071320;28;20106;-24
2023/12/19 00:53:38;;;;;;;5.05;4.20;;;19.00;69.10;;;;;;5071316;28;20524;-27
2023/12/19 00:56:08;;;;;;;4.82;3.83;;;19.40;69.80;;;;;;5071654;28;20048;-27
2023/12/19 00:58:37;;;;;;;4.80;4.00;;;19.10;69.30;;;;;;5071769;28;20106;-29
2023/12/19 01:01:04;;;;;;;5.32;3.90;;;19.30;50.30;;;;;;5071153;28;20114;-26
2023/12/19 01:03:31;;;;;;;4.65;3.90;;;20.50;70.20;;;;;;5067102;28;20110;-27
2023/12/19 01:05:58;;;;;;;4.60;3.97;;;19.20;52.30;;;;;;5070945;28;20045;-27
2023/12/19 01:08:25;;;;;;;4.55;3.90;;;19.30;70.00;;;;;;5071516;28;20052;-26
2023/12/19 01:10:51;;;;;;;5.13;3.70;;;18.30;69.20;;;;;;5071382;28;20060;-24
2023/12/19 01:13:19;;;;;;;4.68;3.85;;;;;;;;;;5071202;28;20131;-25
2023/12/19 01:15:47;;;;;;;5.13;4.25;;;19.10;69.60;;;;;;5070729;28;20052;-25
2023/12/19 01:18:14;;;;;;;4.97;3.75;;;19.00;61.00;;;;;;5067865;28;20500;-25
2023/12/19 01:20:41;;;;;;;4.68;3.35;;;19.10;69.60;;;;;;5050910;28;20537;-25
2023/12/19 01:23:08;;;;;;;3.97;3.50;;;;;;;;;;5051178;28;20528;-29
2023/12/19 01:25:37;;;;;;;6.57;4.38;;;;;;;;;;5057121;28;20501;-24
2023/12/19 01:28:05;;;;;;;3.95;3.53;;;19.20;69.80;;;;;;5066316;28;20044;-23
2023/12/19 01:30:32;;;;;;;4.45;3.70;;;18.80;59.90;;;;;;5057582;28;20821;-26
2023/12/19 01:33:00;;;;;;;4.32;3.40;;;19.60;51.50;;;;;;5051294;28;20075;-26
2023/12/19 01:35:27;;;;;;;4.38;3.53;;;20.50;57.70;;;;;;5052614;28;20056;-25
2023/12/19 01:37:53;;;;;;;4.55;3.20;;;19.20;69.90;;;;;;5070319;28;20341;-26
2023/12/19 01:40:21;;;;;;;4.68;3.58;;;;;;;;;;5074486;28;20529;-26
2023/12/19 01:42:48;;;;;;;4.20;3.20;;;18.80;69.70;;;;;;5061913;28;20387;-25
2023/12/19 01:45:15;;;;;;;3.90;3.20;;;18.90;70.20;;;;;;5054225;28;20468;-26
2023/12/19 01:47:43;;;;;;;4.18;3.35;;;19.10;69.90;;;;;;5054222;28;20506;-24
2023/12/19 01:50:12;;;;;;;4.22;3.42;;;18.00;69.90;;;;;;5054247;28;20041;-24
2023/12/19 01:52:41;;;;;;;4.63;3.00;;;18.80;64.70;;;;;;5054129;28;20053;-25
2023/12/19 01:55:09;;;;;;;4.13;3.10;;;19.90;70.80;;;;;;5054155;28;20124;-24
2023/12/19 01:57:35;;;;;;;3.83;3.15;;;20.30;60.00;;;;;;5053981;28;20091;-25
2023/12/19 02:00:03;;;;;;;4.55;3.28;;;;;;;;;;5054420;28;20060;-25
2023/12/19 02:02:29;;;;;;;4.40;3.40;;;18.50;54.70;;;;;;5054009;28;20044;-27
2023/12/19 02:04:57;;;;;;;3.75;3.20;;;18.90;69.90;;;;;;5053971;28;20048;-29
2023/12/19 02:07:25;;;;;;;3.60;3.10;;;18.90;64.60;;;;;;5053724;28;20052;-27
2023/12/19 02:09:53;;;;;;;4.40;3.10;;;20.30;69.20;;;;;;5053987;28;20098;-27
2023/12/19 02:12:20;;;;;;;3.55;2.70;;;;;;;;;;5053830;28;20068;-26
2023/12/19 02:14:47;;;;;;;3.63;3.10;;;;;;;;;;5072626;28;20121;-24
2023/12/19 02:17:15;;;;;;;3.90;2.90;;;;;;;;;;5073382;28;20056;-28
2023/12/19 02:19:44;;;;;;;4.30;2.90;;;18.80;50.80;;;;;;5058637;28;20060;-26
2023/12/19 02:22:11;;;;;;;3.90;2.92;;;18.60;70.20;;;;;;5062949;28;20581;-25
2023/12/19 02:24:39;;;;;;;3.55;2.83;;;18.80;50.90;;;;;;5073490;28;20075;-27
2023/12/19 02:27:06;;;;;;;3.80;2.85;;;19.20;59.70;;;;;;5073658;28;20057;-27
2023/12/19 02:29:33;;;;;;;3.97;2.90;;;18.60;70.20;;;;;;5072761;28;20059;-26
2023/12/19 02:32:00;;;;;;;3.70;2.72;;;;;;;;;;5066924;28;20056;-24
2023/12/19 02:34:27;;;;;;;3.15;2.83;;;;;;;;;;5053434;28;20049;-25
2023/12/19 02:36:55;;;;;;;3.42;2.70;;;;;;;;;;5061542;28;20501;-29
2023/12/19 02:39:21;;;;;;;3.00;2.47;;;18.00;70.30;;;;;;5073494;28;20528;-25
2023/12/19 02:41:50;;;;;;;3.35;3.05;;;18.70;50.90;;;;;;5073122;28;20486;-26
2023/12/19 02:44:17;;;;;;;3.03;2.63;;;;;;;;;;5073303;28;20105;-27
2023/12/19 02:46:44;;;;;;;3.50;2.70;;;18.60;70.70;;;;;;5065313;28;20052;-25
2023/12/19 02:49:11;;;;;;;2.85;2.45;;;;;;;;;;5054037;28;20052;-28
2023/12/19 02:51:38;;;;;;;3.00;2.40;;;19.70;70.80;;;;;;5072798;28;20048;-25
2023/12/19 02:54:04;;;;;;;2.80;2.50;;;18.50;70.40;;;;;;5073426;28;20129;-25
2023/12/19 02:56:34;;;;;;;2.63;2.30;;;19.40;69.20;;;;;;5073109;28;20131;-25
2023/12/19 02:59:02;;;;;;;2.80;2.45;;;18.50;70.80;;;;;;5072764;28;20651;-25
2023/12/19 03:01:29;;;;;;;3.25;2.50;;;17.60;70.00;;;;;;5072986;28;20073;-25
2023/12/19 03:03:56;;;;;;;3.00;2.35;;;19.40;71.20;;;;;;5071513;28;20052;-24
2023/12/19 03:06:23;;;;;;;2.67;2.33;;;18.20;70.70;;;;;;5072789;28;20571;-24
2023/12/19 03:08:50;;;;;;;2.75;2.33;;;;;;;;;;5072633;28;20055;-25
2023/12/19 03:11:17;;;;;;;2.20;2.00;;;17.70;70.40;;;;;;5072733;28;20482;-26
2023/12/19 03:13:45;;;;;;;2.60;2.28;;;18.40;62.10;;;;;;5072923;28;20048;-28
2023/12/19 03:16:13;;;;;;;2.72;2.15;;;18.40;54.00;;;;;;5072283;28;20053;-27
2023/12/19 03:18:40;;;;;;;2.47;2.17;;;17.50;59.60;;;;;;5067332;28;20044;-25
2023/12/19 03:21:08;;;;;;;2.53;2.20;;;17.80;70.50;;;;;;5071734;28;20045;-25
2023/12/19 03:23:35;;;;;;;2.45;2.00;;;18.20;70.80;;;;;;5072246;28;20097;-26
2023/12/19 03:26:02;;;;;;;2.88;2.30;;;;;;;;;;5072162;28;20044;-28
2023/12/19 03:28:29;;;;;;;2.40;2.05;;;;;;;;;;5072239;28;20490;-24
2023/12/19 03:30:56;;;;;;;2.72;2.20;;;19.80;53.10;;;;;;5072636;28;20052;-26
2023/12/19 03:33:24;;;;;;;2.10;1.90;;;17.40;70.00;;;;;;5072475;28;20379;-24
2023/12/19 03:35:51;;;;;;;2.05;1.80;;;18.10;70.90;;;;;;5072228;28;20044;-24
2023/12/19 03:38:18;;;;;;;2.47;1.92;;;;;;;;;;5051873;28;20138;-29
2023/12/19 03:40:45;;;;;;;2.47;2.05;;;19.00;71.30;;;;;;5052440;28;20049;-25
2023/12/19 03:43:12;;;;;;;2.25;2.00;;;18.40;71.10;;;;;;5052089;28;20056;-24
2023/12/19 03:45:39;;;;;;;2.28;1.80;;;18.60;70.90;;;;;;5052208;28;20429;-25
2023/12/19 03:48:06;;;;;;;2.17;1.98;;;17.60;70.40;;;;;;5051760;28;20552;-25
2023/12/19 03:50:35;;;;;;;2.20;1.80;;;18.40;51.10;;;;;;5052106;28;20060;-25
2023/12/19 03:53:02;;;;;;;2.40;2.20;;;18.30;70.70;;;;;;5053163;28;20056;-25
2023/12/19 03:55:29;;;;;;;2.00;1.77;;;;;;;;;;5051967;28;20048;-26
2023/12/19 03:57:56;;;;;;;2.10;1.90;;;19.90;71.40;;;;;;5051221;28;20048;-25
2023/12/19 04:00:23;;;;;;;2.17;1.73;;;;;;;;;;5051581;28;20444;-25
2023/12/19 04:02:50;;;;;;;2.45;1.90;;;18.30;70.80;;;;;;5052264;28;20045;-25
2023/12/19 04:05:18;;;;;;;2.50;1.90;;;;;;;;;;5051919;28;20083;-25
2023/12/19 04:07:46;;;;;;;2.50;1.90;;;18.40;51.20;;;;;;5051624;28;20052;-24
2023/12/19 04:10:13;;;;;;;2.10;1.67;;;;;;;;;;5066404;28;20516;-26
2023/12/19 04:12:40;;;;;;;2.40;1.75;;;17.40;70.20;;;;;;5071509;28;20041;-25
2023/12/19 04:15:09;;;;;;;2.00;1.80;;;18.20;70.80;;;;;;5058804;28;20287;-25
2023/12/19 04:17:35;;;;;;;2.10;1.80;;;18.30;59.00;;;;;;5058525;28;20083;-25
2023/12/19 04:20:03;;;;;;;1.90;1.70;;;18.20;56.30;;;;;;5054009;28;20048;-25
2023/12/19 04:22:31;;;;;;;1.80;1.60;;;18.10;64.30;;;;;;5051704;28;20044;-28
2023/12/19 04:24:59;;;;;;;2.17;1.65;;;;;;;;;;5052156;28;20052;-30
2023/12/19 04:27:26;;;;;;;2.28;1.60;;;18.20;71.10;;;;;;5071413;28;20045;-29
2023/12/19 04:29:55;;;;;;;1.95;1.60;;;18.20;71.10;;;;;;5071585;28;20636;-29
2023/12/19 04:32:22;;;;;;;2.10;1.60;;;;;;;;;;5071502;28;20040;-27
2023/12/19 04:34:49;;;;;;;2.47;1.70;;;18.30;71.10;;;;;;5071568;28;20049;-29
2023/12/19 04:37:16;;;;;;;1.92;1.60;;;18.10;63.80;;;;;;5070934;28;20048;-28
2023/12/19 04:39:43;;;;;;;1.90;1.70;;;18.10;70.90;;;;;;5071814;28;20048;-29
2023/12/19 04:42:17;;;;;;;1.85;1.50;;;18.20;51.30;;;;;;5065912;28;20055;-28
2023/12/19 04:44:44;;;;;;;2.10;1.70;;;18.10;71.00;;;;;;5051660;28;20409;-29
2023/12/19 04:47:10;;;;;;;2.08;1.60;;;18.00;68.40;;;;;;5051437;28;20056;-30
2023/12/19 04:49:37;;;;;;;1.85;1.50;;;17.20;66.00;;;;;;5051853;28;20049;-27
2023/12/19 04:52:05;;;;;;;1.98;1.60;;;18.20;51.30;;;;;;5051399;28;20099;-26
2023/12/19 04:54:33;;;;;;;2.30;1.70;;;;;;;;;;5051421;28;20501;-27
2023/12/19 04:57:00;;;;;;;1.73;1.50;;;18.00;68.90;;;;;;5051581;28;20045;-27
2023/12/19 04:59:28;;;;;;;1.77;1.50;;;17.80;63.30;;;;;;5052336;28;20045;-27
2023/12/19 05:01:55;;;;;;;1.65;1.50;;;18.00;64.00;;;;;;5051375;28;20048;-27
2023/12/19 05:04:22;;;;;;;1.90;1.50;;;;;;;;;;5051294;28;20098;-26
2023/12/19 05:06:49;;;;;;;1.95;1.63;;;;;;;;;;5051114;28;20057;-27
2023/12/19 05:09:16;;;;;;;1.90;1.50;;;17.90;71.00;;;;;;5052522;28;20103;-28
2023/12/19 05:11:44;;;;;;;1.88;1.60;;;19.50;53.80;;;;;;5070633;28;20056;-27
2023/12/19 05:14:10;;;;;;;1.83;1.60;;;19.40;69.40;;;;;;5055738;28;20072;-27
2023/12/19 05:16:39;;;;;;;1.70;1.50;;;18.80;69.60;;;;;;5054972;28;20052;-24
2023/12/19 05:19:06;;;;;;;1.73;1.40;;;17.40;71.10;;;;;;5065205;28;20044;-24
2023/12/19 05:21:37;;;;;;;2.38;1.60;;;18.20;51.40;;;;;;5074396;28;20048;-24
2023/12/19 05:24:04;;;;;;;1.60;1.38;;;18.10;71.40;;;;;;5075324;28;20048;-24
2023/12/19 05:26:31;;;;;;;1.88;1.52;;;;;;;;;;5071327;28;20082;-26
2023/12/19 05:28:58;;;;;;;1.45;1.35;;;18.30;71.90;;;;;;5054652;28;20049;-27
2023/12/19 05:31:25;;;;;;;1.80;1.50;;;;;;;;;;5054685;28;20064;-26
2023/12/19 05:33:54;;;;;;;1.42;1.30;;;19.40;69.00;;;;;;5054594;28;20049;-27
2023/12/19 05:36:21;;;;;;;1.50;1.20;;;17.80;53.70;;;;;;5058499;28;20397;-27
2023/12/19 05:38:48;;;;;;;1.60;1.40;;;19.50;68.40;;;;;;5074396;28;20053;-27
2023/12/19 05:41:16;;;;;;;1.80;1.45;;;18.10;67.40;;;;;;5074716;28;20118;-29
2023/12/19 05:43:43;;;;;;;1.70;1.40;;;18.20;71.40;;;;;;5073780;28;20044;-25
2023/12/19 05:46:10;;;;;;;1.50;1.33;;;17.50;58.00;;;;;;5062516;28;20080;-25
2023/12/19 05:48:37;;;;;;;3.83;1.30;;;17.80;64.10;;;;;;5054088;28;20052;-25
2023/12/19 05:51:05;;;;;;;1.55;1.30;;;18.20;51.50;;;;;;5054534;28;20099;-26
2023/12/19 05:53:32;;;;;;;1.27;1.17;;;18.00;61.40;;;;;;5054317;28;20490;-25
2023/12/19 05:55:59;;;;;;;2.55;1.40;;;17.90;63.80;;;;;;5054058;28;20106;-25
2023/12/19 05:58:26;;;;;;;1.58;1.20;;;;;;;;;;5053963;28;20052;-25
2023/12/19 06:00:55;;;;;;;1.48;1.27;;;19.50;72.10;;;;;;5058427;28;20094;-31
2023/12/19 06:03:23;;;;;;;1.70;1.30;;;;;;;;;;5070720;28;20438;-27
2023/12/19 06:05:50;;;;;;;1.40;1.30;;;;;;;;;;5074129;28;20078;-24
2023/12/19 06:08:20;;;;;;;1.25;1.10;;;18.10;65.30;;;;;;5055401;28;20060;-26
2023/12/19 06:10:47;;;;;;;1.33;1.20;;;18.50;55.60;;;;;;5053726;28;20055;-25
2023/12/19 06:13:14;;;;;;;1.35;1.13;;;18.20;71.70;;;;;;5061406;28;20128;-27
2023/12/19 06:15:41;;;;;;;1.42;1.23;;;18.00;54.30;;;;;;5074002;28;20106;-27
2023/12/19 06:18:08;;;;;;;1.23;1.10;;;19.20;72.60;;;;;;5062870;28;20486;-25
2023/12/19 06:20:35;;;;;;;1.10;1.00;;;;;;;;;;5054798;28;20526;-26
2023/12/19 06:23:02;;;;;;;1.60;1.30;;;;;;;;;;5053624;28;20124;-26
2023/12/19 06:25:31;;;;;;;1.50;1.20;;;18.10;51.60;;;;;;5053588;28;20094;-28
2023/12/19 06:27:58;;;;;;;1.33;1.10;;;18.00;60.40;;;;;;5053790;28;20048;-27
2023/12/19 06:30:25;;;;;;;1.50;1.10;;;17.30;52.60;;;;;;5053482;28;20048;-25
2023/12/19 06:32:52;;;;;;;1.10;1.00;;;17.90;71.40;;;;;;5053567;28;20098;-23
2023/12/19 06:35:19;;;;;;;1.15;0.95;;;19.20;63.60;;;;;;5056921;28;20045;-24
2023/12/19 06:37:46;;;;;;;1.05;1.00;;;18.40;52.20;;;;;;5068469;28;20052;-25
2023/12/19 06:40:13;;;;;;;2.40;1.27;;;16.90;70.80;;;;;;5073390;28;20098;-23
2023/12/19 06:42:41;;;;;;;1.00;0.90;;;17.20;51.30;;;;;;5073461;28;20485;-25
2023/12/19 06:45:09;;;;;;;1.20;1.10;;;17.30;71.10;;;;;;5073322;28;20056;-26
2023/12/19 06:47:36;;;;;;;1.17;1.00;;;17.90;68.70;;;;;;5073109;28;20098;-24
2023/12/19 06:50:05;;;;;;;1.25;0.98;;;18.20;71.80;;;;;;5072735;28;20048;-24
2023/12/19 06:52:31;;;;;;;1.27;1.10;;;18.00;71.30;;;;;;5069909;28;20145;-26
2023/12/19 06:54:59;;;;;;;1.02;0.88;;;;;;;;;;5073270;28;20588;-25
2023/12/19 06:57:26;;;;;;;1.10;1.00;;;;;;;;;;5072996;28;20052;-24
2023/12/19 06:59:54;;;;;;;1.10;1.00;;;18.20;71.40;;;;;;5073098;28;20048;-25
2023/12/19 07:02:21;;;;;;;0.80;0.80;;;18.10;71.70;;;;;;5072673;28;20048;-29
2023/12/19 07:04:48;;;;;;;1.17;1.08;;;;;;;;;;5052831;28;20502;-26
2023/12/19 07:07:15;;;;;;;1.20;1.10;;;18.10;69.80;;;;;;5054356;28;20452;-24
2023/12/19 07:09:42;;;;;;;1.05;0.95;;;17.90;71.50;;;;;;5052873;28;20080;-25
2023/12/19 07:12:09;;;;;;;0.82;0.80;;;19.40;72.20;;;;;;5052632;28;20114;-26
2023/12/19 07:14:36;;;;;;;1.00;0.90;;;18.20;71.70;;;;;;5052857;28;20049;-27
2023/12/19 07:17:04;;;;;;;0.90;0.90;;;18.20;54.10;;;;;;5052842;28;20053;-27
2023/12/19 07:19:31;;;;;;;1.20;1.10;;;18.20;71.30;;;;;;5060451;28;20449;-27
2023/12/19 07:21:58;;;;;;;1.30;1.10;;;18.40;71.70;;;;;;5061611;28;20047;-28
2023/12/19 07:24:25;;;;;;;1.63;0.93;;;18.10;60.00;;;;;;5061751;28;20045;-27
2023/12/19 07:26:52;;;;;;;1.35;1.00;;;18.40;71.60;;;;;;5061944;28;20044;-24
2023/12/19 07:29:19;;;;;;;1.08;0.90;;;17.70;63.90;;;;;;5055235;28;20049;-24
2023/12/19 07:31:46;;;;;;;1.05;0.90;;;18.10;59.70;;;;;;5052042;28;20052;-26
2023/12/19 07:34:14;;;;;;;0.80;0.80;;;18.40;51.30;;;;;;5051584;28;20049;-27
2023/12/19 07:36:41;;;;;;;1.08;0.93;;;;;;;;;;5058873;28;20048;-26
2023/12/19 07:39:10;;;;;;;0.90;0.90;;;18.50;70.90;;;;;;5072166;28;20056;-28
2023/12/19 07:41:36;;;;;;;0.95;0.85;;;17.60;70.80;;;;;;5064839;28;20139;-27
2023/12/19 07:44:09;;;;;;;0.98;0.90;;;;;;;;;;5071886;28;20057;-27
2023/12/19 07:46:36;;;;;;;1.05;0.95;;;18.70;55.50;;;;;;5072243;28;20048;-25
2023/12/19 07:49:04;;;;;;;1.27;1.15;;;;;;;;;;5071865;28;20122;-28
2023/12/19 07:51:32;;;;;;;0.80;0.80;;;18.60;51.00;;;;;;5071437;28;20049;-25
2023/12/19 07:53:59;;;;;;;1.88;1.00;;;18.70;71.10;;;;;;5062288;28;20040;-23
2023/12/19 07:56:25;;;;;;;0.80;0.80;;;19.60;71.80;;;;;;5071752;28;20094;-28
2023/12/19 07:58:52;;;;;;;0.75;0.70;;;18.40;57.10;;;;;;5067373;28;20110;-27
2023/12/19 08:01:20;;;;;;;1.05;0.90;;;17.70;58.00;;;;;;5052025;28;20132;-29
2023/12/19 08:03:47;;;;;;;0.88;0.88;;;18.60;70.80;;;;;;5052040;28;20057;-30
2023/12/19 08:06:14;;;;;;;0.80;0.80;;;18.70;70.60;;;;;;5051806;28;20102;-23
2023/12/19 08:08:43;;;;;;;0.77;0.77;;;19.20;65.60;;;;;;5051900;28;20056;-25
2023/12/19 08:11:12;;;;;;;0.80;0.80;;;;;;;;;;5051490;28;20128;-25
2023/12/19 08:13:38;;;;;;;0.60;0.60;;;18.50;60.10;;;;;;5051780;28;20052;-25
2023/12/19 08:16:06;;;;;;;0.93;0.82;;;19.10;51.20;;;;;;5053699;28;20457;-25
2023/12/19 08:18:34;;;;;;;0.82;0.77;;;;;;;;;;5057125;28;20052;-26
2023/12/19 08:21:01;;;;;;;0.75;0.75;;;;;;;;;;5066596;28;20053;-26
2023/12/19 08:23:28;;;;;;;0.70;0.70;;;20.60;67.90;;;;;;5051480;28;20056;-29
2023/12/19 08:25:56;;;;;;;0.70;0.70;;;19.30;50.80;;;;;;5051917;28;20072;-26
2023/12/19 08:28:23;;;;;;;0.80;0.80;;;;;;;;;;5051491;28;20049;-27
2023/12/19 08:30:50;;;;;;;0.73;0.73;;;19.30;70.20;;;;;;5057721;28;20045;-29
2023/12/19 08:33:17;;;;;;;0.77;0.60;;;;;;;;;;5071710;28;20490;-27
2023/12/19 08:35:45;;;;;;;0.80;0.80;;;;;;;;;;5071725;28;20460;-30
2023/12/19 08:38:12;;;;;;;0.70;0.70;;;;;;;;;;5070909;28;20080;-29
2023/12/19 08:40:39;;;;;;;0.85;0.75;;;19.60;70.10;;;;;;5071772;28;20449;-31
2023/12/19 08:43:07;;;;;;;0.73;0.73;;;20.00;69.60;;;;;;5071653;28;20551;-31
2023/12/19 08:45:34;;;;;;;0.77;0.77;;;20.00;69.80;;;;;;5070343;28;20102;-29
2023/12/19 08:48:01;;;;;;;0.70;0.70;;;19.80;57.10;;;;;;5059136;28;20095;-25
2023/12/19 08:50:27;;;;;;;0.73;0.73;;;19.80;51.20;;;;;;5058695;28;20056;-25
2023/12/19 08:52:55;;;;;;;0.70;0.70;;;;;;;;;;5075712;28;20102;-29
2023/12/19 08:55:22;;;;;;;0.70;0.70;;;;;;;;;;5070701;28;20049;-29
2023/12/19 08:57:50;;;;;;;0.70;0.70;;;;;;;;;;5055431;28;20445;-31
2023/12/19 09:00:21;;;;;;;0.80;0.80;;;20.10;69.60;;;;;;5066431;28;20075;-27
2023/12/19 09:02:48;;;;;;;1.13;0.77;;;18.30;49.10;;;;;;5071421;28;20391;-27
2023/12/19 09:05:15;;;;;;;0.93;0.73;;;20.10;69.40;;;;;;5058143;28;20083;-25
2023/12/19 09:07:43;;;;;;;0.88;0.63;;;20.90;68.80;;;;;;5058235;28;20094;-25
2023/12/19 09:10:13;;;;;;;0.75;0.75;;;20.80;69.70;;;;;;5063769;28;20048;-25
2023/12/19 09:12:40;;;;;;;0.85;0.80;;;;;;;;;;5064551;28;20090;-26
2023/12/19 09:15:08;;;;;;;0.80;0.80;;;20.20;69.80;;;;;;5065552;28;20047;-30
2023/12/19 09:17:37;;;;;;;0.50;0.50;;;20.10;69.50;;;;;;5063654;28;20212;-24
2023/12/19 09:20:07;;;;;;;0.60;0.60;;;20.30;49.90;;;;;;5063917;28;20093;-27
2023/12/19 09:22:34;;;;;;;0.70;0.70;;;20.30;69.40;;;;;;5048810;28;20049;-31
2023/12/19 09:25:02;;;;;;;0.70;0.70;;;20.20;69.00;;;;;;5066178;28;20072;-30
2023/12/19 09:27:29;;;;;;;0.50;0.50;;;20.50;57.70;;;;;;5075090;28;20102;-28
2023/12/19 09:29:55;;;;;;;0.55;0.55;;;20.40;68.50;;;;;;5074849;28;20052;-24
2023/12/19 09:32:22;;;;;;;0.68;0.68;;;20.30;69.30;;;;;;5068874;28;20095;-25
2023/12/19 09:34:50;;;;;;;0.85;0.70;;;20.40;68.50;;;;;;5064396;28;20052;-25
2023/12/19 09:37:21;;;;;;;0.60;0.60;;;20.40;68.70;;;;;;5068661;28;20053;-25
2023/12/19 09:39:48;;;;;;;1.00;0.70;;;20.50;68.70;;;;;;5066067;28;20053;-25
2023/12/19 09:42:18;;;;;;;0.95;0.60;;;20.60;51.70;;;;;;5054666;28;20053;-29
2023/12/19 09:44:45;;;;;;;2.25;0.82;;;20.40;68.30;;;;;;5054772;28;20056;-29
2023/12/19 09:47:12;;;;;;;0.80;0.70;;;20.80;69.50;;;;;;5054670;28;20179;-31
2023/12/19 09:49:39;;;;;;;1.70;0.63;;;20.70;56.60;;;;;;5054373;28;20049;-32
2023/12/19 09:52:08;;;;;;;2.03;0.63;;;21.30;69.50;;;;;;5062777;28;20056;-28
2023/12/19 09:54:35;;;;;;;2.20;0.77;;;;;;;;;;5074646;28;20056;-27
2023/12/19 09:57:02;;;;;;;2.33;0.70;;;20.80;69.00;;;;;;5073336;28;20048;-29
2023/12/19 09:59:29;;;;;;;1.88;0.85;;;;;;;;;;5023700;28;20049;-30
2023/12/19 10:01:57;;;;;;;5.25;0.80;;;20.70;67.50;;;;;;4876725;28;20540;-29
2023/12/19 10:04:24;;;;;;;10.98;1.17;;;20.70;53.00;;;;;;4967448;28;20092;-27
2023/12/19 10:06:54;;;;;;;5.07;1.08;;;21.10;68.90;;;;;;5040641;28;20057;-27
2023/12/19 10:09:23;;;;;;;5.57;0.90;;;20.90;68.40;;;;;;5044559;28;20452;-30
2023/12/19 10:12:04;;;;;;;5.95;0.90;;;20.90;68.70;;;;;;5041836;28;20095;-29
2023/12/19 10:14:32;;;;;;;2.88;0.80;;;20.80;68.80;;;;;;5033240;28;20073;-27
2023/12/19 10:16:59;;;;;;;1.77;1.00;;;20.80;62.80;;;;;;5033464;28;20053;-31
2023/12/19 10:19:27;;;;;;;3.70;0.70;;;20.80;54.60;;;;;;5032635;28;20458;-30
2023/12/19 10:22:07;;;;;;;1.58;0.90;;;21.00;49.50;;;;;;5033374;28;20183;-25
2023/12/19 10:24:35;;;;;;;2.55;1.00;;;21.00;49.50;;;;;;5042365;28;20049;-28
2023/12/19 10:27:05;;;;;;;2.90;0.70;;;21.30;54.80;;;;;;5043520;28;20448;-30
2023/12/19 10:29:36;;;;;;;0.88;0.75;;;;;;;;;;5044179;28;20502;-26
2023/12/19 10:32:13;;;;;;;0.98;0.70;;;20.80;68.10;;;;;;5043649;28;20421;-25
2023/12/19 10:34:40;;;;;;;2.45;0.60;;;21.20;67.90;;;;;;5032092;28;20540;-25
2023/12/19 10:37:10;;;;;;;0.75;0.60;;;21.10;49.40;;;;;;5037548;28;20494;-28
2023/12/19 10:39:38;;;;;;;1.33;0.50;;;21.10;65.00;;;;;;5033489;28;20049;-30
2023/12/19 10:42:06;;;;;;;1.45;0.95;;;21.10;68.30;;;;;;5033306;28;20049;-31
2023/12/19 10:44:33;;;;;;;1.10;0.60;;;21.20;49.30;;;;;;5033333;28;20526;-29
2023/12/19 10:47:01;;;;;;;1.35;0.70;;;21.30;68.80;;;;;;5033403;28;20045;-30
2023/12/19 10:49:28;;;;;;;0.70;0.70;;;21.30;68.60;;;;;;5043518;28;20134;-30
2023/12/19 10:51:55;;;;;;;0.57;0.57;;;;;;;;;;5032597;28;20077;-27
2023/12/19 10:54:22;;;;;;;2.25;0.68;;;21.00;50.50;;;;;;5037753;28;20050;-27
2023/12/19 10:56:59;;;;;;;0.52;0.52;;;21.10;68.00;;;;;;5041709;28;20049;-24
2023/12/19 10:59:30;;;;;;;0.60;0.57;;;21.50;64.50;;;;;;5042709;28;20414;-27
2023/12/19 11:02:00;;;;;;;0.50;0.50;;;21.40;49.20;;;;;;5042080;28;20134;-26
2023/12/19 11:04:27;;;;;;;0.65;0.60;;;;;;;;;;5032511;28;20545;-25
2023/12/19 11:06:56;;;;;;;1.95;0.50;;;21.20;68.30;;;;;;5032534;28;20435;-29
2023/12/19 11:09:25;;;;;;;0.70;0.60;;;21.50;68.50;;;;;;5033765;28;20041;-24
2023/12/19 11:11:53;;;;;;;0.73;0.50;;;22.30;58.80;;;;;;5038071;28;20057;-25
2023/12/19 11:14:23;;;;;;;1.10;0.63;;;20.80;66.40;;;;;;5041400;28;20046;-25
2023/12/19 11:16:52;;;;;;;1.02;0.60;;;21.20;67.90;;;;;;5042018;28;20049;-25
2023/12/19 11:19:20;;;;;;;1.42;0.50;;;21.60;65.20;;;;;;5040489;28;20057;-27
2023/12/19 11:21:50;;;;;;;0.52;0.52;;;22.00;68.60;;;;;;5036503;28;20049;-25
2023/12/19 11:24:19;;;;;;;0.93;0.50;;;21.50;51.70;;;;;;5052904;28;20102;-30
2023/12/19 11:26:48;;;;;;;0.70;0.50;;;21.90;60.10;;;;;;5053145;28;20053;-30
2023/12/19 11:29:44;;;;;;;0.57;0.57;;;21.50;68.70;;;;;;5051545;28;20049;-26
2023/12/19 11:32:40;;;;;;;1.75;0.70;;;21.60;67.90;;;;;;5041875;28;20491;-25
2023/12/19 11:35:08;;;;;;;0.82;0.70;;;21.50;48.80;;;;;;5032514;28;20055;-25
2023/12/19 11:37:35;;;;;;;0.68;0.68;;;21.70;68.70;;;;;;5060907;28;20118;-24
2023/12/19 11:40:02;;;;;;;0.60;0.60;;;;;;;;;;5072316;28;20090;-27
2023/12/19 11:42:44;;;;;;;0.60;0.60;;;21.40;63.70;;;;;;5072298;28;20052;-27
2023/12/19 11:45:37;;;;;;;0.68;0.68;;;21.10;67.00;;;;;;5058757;28;20114;-24
2023/12/19 11:48:33;;;;;;;1.13;0.70;;;21.30;67.70;;;;;;5045927;28;20072;-29
2023/12/19 11:51:00;;;;;;;0.52;0.52;;;22.70;68.50;;;;;;5032471;28;20454;-24
2023/12/19 11:53:27;;;;;;;0.45;0.45;;;;;;;;;;5031954;28;20155;-25
2023/12/19 11:56:05;;;;;;;0.73;0.73;;;22.00;68.30;;;;;;5032357;28;20053;-30
2023/12/19 11:58:32;;;;;;;0.80;0.70;;;21.30;68.30;;;;;;5032099;28;20051;-30
2023/12/19 12:01:00;;;;;;;0.60;0.60;;;21.40;48.80;;;;;;5032185;28;20388;-27
2023/12/19 12:03:27;;;;;;;0.70;0.70;;;21.70;60.00;;;;;;5032145;28;20116;-30
2023/12/19 12:05:55;;;;;;;0.60;0.60;;;21.60;68.20;;;;;;5032030;28;20491;-27
2023/12/19 12:08:22;;;;;;;0.73;0.70;;;;;;;;;;5031819;28;20077;-29
2023/12/19 12:10:59;;;;;;;0.68;0.68;;;21.20;48.90;;;;;;5031971;28;20103;-26
2023/12/19 12:13:27;;;;;;;0.82;0.80;;;20.80;67.90;;;;;;5044760;28;20072;-25
2023/12/19 12:15:54;;;;;;;0.70;0.70;;;21.20;59.80;;;;;;5051664;28;20044;-24
2023/12/19 12:18:22;;;;;;;1.20;0.70;;;21.00;68.80;;;;;;5047601;28;20045;-29
2023/12/19 12:20:49;;;;;;;0.95;0.85;;;21.90;68.60;;;;;;5031355;28;20132;-29
2023/12/19 12:23:18;;;;;;;0.75;0.75;;;20.90;68.30;;;;;;5041883;28;20056;-26
2023/12/19 12:25:53;;;;;;;0.95;0.80;;;21.50;68.80;;;;;;5030759;28;20073;-25
2023/12/19 12:28:25;;;;;;;1.27;0.93;;;;;;;;;;5031304;28;20046;-26
2023/12/19 12:30:54;;;;;;;1.33;0.88;;;21.10;49.10;;;;;;5031469;28;20095;-26
2023/12/19 12:33:23;;;;;;;1.80;1.10;;;20.40;68.20;;;;;;5031143;28;20450;-24
2023/12/19 12:35:50;;;;;;;1.10;0.73;;;;;;;;;;5030814;28;20511;-26
2023/12/19 12:38:18;;;;;;;1.08;0.98;;;21.00;49.20;;;;;;5024317;28;20065;-25
2023/12/19 12:40:54;;;;;;;1.10;1.00;;;21.30;54.70;;;;;;5042620;28;20442;-29
2023/12/19 12:43:35;;;;;;;1.70;1.10;;;20.60;54.80;;;;;;5039804;28;20050;-28
2023/12/19 12:46:09;;;;;;;1.23;1.10;;;20.80;49.30;;;;;;5020880;28;20051;-27
2023/12/19 12:48:38;;;;;;;1.17;1.02;;;20.70;49.30;;;;;;5043626;28;20050;-27
2023/12/19 12:51:06;;;;;;;1.17;1.00;;;21.20;69.80;;;;;;5030867;28;20056;-25
2023/12/19 12:53:33;;;;;;;1.30;1.20;;;20.70;49.40;;;;;;5030798;28;20387;-26
2023/12/19 12:56:08;;;;;;;1.40;1.15;;;21.70;69.70;;;;;;5030760;28;20119;-30
2023/12/19 12:58:35;;;;;;;2.15;1.13;;;;;;;;;;5030820;28;20045;-26
2023/12/19 13:01:03;;;;;;;2.65;1.10;;;20.40;68.90;;;;;;5030558;28;20053;-25
2023/12/19 13:03:30;;;;;;;1.60;1.10;;;21.10;70.00;;;;;;5030757;28;20045;-25
2023/12/19 13:06:00;;;;;;;1.85;1.20;;;20.20;66.70;;;;;;5036758;28;20053;-27
2023/12/19 13:08:27;;;;;;;1.50;1.35;;;19.90;62.10;;;;;;5030832;28;20052;-27
2023/12/19 13:10:54;;;;;;;1.40;1.10;;;20.00;69.80;;;;;;5029759;28;20041;-24
2023/12/19 13:13:21;;;;;;;1.25;1.02;;;;;;;;;;5031229;28;20060;-26